RYR7EY EPMO-LEVC
Flight info
| Callsign | RYR7EY |
|---|---|
| Flight time | 3h 2m |
| Altitude | 38000 |
| Route | SOXER N869 TOMTI DCT LEGAZ DCT AMOSA N869 NEMOS DCT BALSI DCT DOTIG DCT PADKO DCT VATIR N852 PIVUS Z237 AKAMU N733 ARGOR |
| Aircraft | B738/M-SDE2E3FGHIRWXY/LB1 |
Departure
| Time | 2026-04-07 11:46 |
|---|---|
| Airport | Warsaw Modlin Airport (EPMO) |
Arrival
| Time | 2026-04-07 14:49 |
|---|---|
| Airport | Valencia Airport (LEVC) |
| Time | Latitude | Longitude | Altitude | Speed | Heading |
|---|---|---|---|---|---|
| 2026-04-07 11:21 | 52.44755 | 20.65341 | 340 ft | 0 kts | 206° |
| 2026-04-07 11:39 | 52.44756 | 20.65342 | 337 ft | 1 kts | 206° |
| 2026-04-07 11:39 | 52.44771 | 20.65352 | 333 ft | 3 kts | 191° |
| 2026-04-07 11:39 | 52.44788 | 20.65353 | 333 ft | 3 kts | 149° |
| 2026-04-07 11:39 | 52.44798 | 20.65337 | 334 ft | 2 kts | 90° |
| 2026-04-07 11:40 | 52.44797 | 20.65322 | 333 ft | 1 kts | 81° |
| 2026-04-07 11:40 | 52.44797 | 20.65320 | 333 ft | 0 kts | 81° |
| 2026-04-07 11:43 | 52.44804 | 20.65400 | 335 ft | 15 kts | 83° |
| 2026-04-07 11:43 | 52.44824 | 20.65616 | 334 ft | 20 kts | 82° |
| 2026-04-07 11:43 | 52.44843 | 20.65843 | 336 ft | 20 kts | 81° |
| 2026-04-07 11:43 | 52.44863 | 20.66062 | 337 ft | 19 kts | 79° |
| 2026-04-07 11:44 | 52.44885 | 20.66283 | 334 ft | 24 kts | 81° |
| 2026-04-07 11:44 | 52.44915 | 20.66602 | 337 ft | 29 kts | 81° |
| 2026-04-07 11:44 | 52.44945 | 20.66925 | 337 ft | 28 kts | 82° |
| 2026-04-07 11:44 | 52.45038 | 20.67074 | 332 ft | 17 kts | 349° |
| 2026-04-07 11:45 | 52.45164 | 20.67041 | 334 ft | 21 kts | 351° |
| 2026-04-07 11:45 | 52.45288 | 20.66974 | 338 ft | 10 kts | 305° |
| 2026-04-07 11:45 | 52.45280 | 20.66857 | 334 ft | 20 kts | 260° |
| 2026-04-07 11:45 | 52.45219 | 20.66212 | 336 ft | 93 kts | 261° |
| 2026-04-07 11:46 | 52.45089 | 20.64818 | 365 ft | 150 kts | 262° |
| 2026-04-07 11:46 | 52.44938 | 20.63007 | 880 ft | 168 kts | 268° |
| 2026-04-07 11:46 | 52.44730 | 20.61099 | 1780 ft | 175 kts | 263° |
| 2026-04-07 11:46 | 52.44407 | 20.59114 | 2568 ft | 187 kts | 263° |
| 2026-04-07 11:47 | 52.44055 | 20.56908 | 2849 ft | 213 kts | 262° |
| 2026-04-07 11:47 | 52.43542 | 20.54522 | 3424 ft | 228 kts | 255° |
| 2026-04-07 11:47 | 52.42914 | 20.52051 | 4008 ft | 244 kts | 254° |
| 2026-04-07 11:47 | 52.42242 | 20.49462 | 4787 ft | 252 kts | 253° |
| 2026-04-07 11:48 | 52.41549 | 20.46800 | 5640 ft | 255 kts | 253° |
| 2026-04-07 11:48 | 52.40845 | 20.44090 | 6453 ft | 262 kts | 253° |
| 2026-04-07 11:48 | 52.40128 | 20.41312 | 7263 ft | 266 kts | 253° |
| 2026-04-07 11:48 | 52.39401 | 20.38488 | 8110 ft | 269 kts | 253° |
| 2026-04-07 11:49 | 52.38679 | 20.35672 | 8936 ft | 273 kts | 253° |
| 2026-04-07 11:49 | 52.37939 | 20.32779 | 9759 ft | 278 kts | 253° |
| 2026-04-07 11:49 | 52.37187 | 20.29836 | 10476 ft | 285 kts | 253° |
| 2026-04-07 11:49 | 52.36395 | 20.26709 | 10697 ft | 310 kts | 253° |
| 2026-04-07 11:50 | 52.35538 | 20.23323 | 10899 ft | 333 kts | 252° |
| 2026-04-07 11:50 | 52.34621 | 20.19714 | 11240 ft | 350 kts | 252° |
| 2026-04-07 11:50 | 52.33667 | 20.15990 | 11871 ft | 357 kts | 252° |
| 2026-04-07 11:50 | 52.32701 | 20.12236 | 12656 ft | 360 kts | 253° |
| 2026-04-07 11:51 | 52.31732 | 20.08475 | 13393 ft | 364 kts | 253° |
| 2026-04-07 11:51 | 52.30743 | 20.04637 | 14100 ft | 368 kts | 254° |
| 2026-04-07 11:51 | 52.29743 | 20.00757 | 14750 ft | 372 kts | 255° |
| 2026-04-07 11:51 | 52.28733 | 19.96837 | 15422 ft | 375 kts | 256° |
| 2026-04-07 11:52 | 52.27715 | 19.92894 | 16105 ft | 377 kts | 257° |
| 2026-04-07 11:52 | 52.26691 | 19.88932 | 16769 ft | 380 kts | 258° |
| 2026-04-07 11:52 | 52.25658 | 19.84939 | 17430 ft | 383 kts | 260° |
| 2026-04-07 11:52 | 52.24617 | 19.80918 | 18064 ft | 386 kts | 261° |
| 2026-04-07 11:53 | 52.23566 | 19.76868 | 18675 ft | 388 kts | 261° |
| 2026-04-07 11:53 | 52.22508 | 19.72802 | 19237 ft | 390 kts | 261° |
| 2026-04-07 11:53 | 52.21442 | 19.68716 | 19783 ft | 392 kts | 262° |
| 2026-04-07 11:53 | 52.20381 | 19.64655 | 20350 ft | 394 kts | 262° |
| 2026-04-07 11:54 | 52.19304 | 19.60537 | 20885 ft | 396 kts | 261° |
| 2026-04-07 11:54 | 52.18217 | 19.56389 | 21398 ft | 399 kts | 261° |
| 2026-04-07 11:54 | 52.17122 | 19.52215 | 21902 ft | 402 kts | 261° |
| 2026-04-07 11:54 | 52.16017 | 19.48014 | 22411 ft | 404 kts | 261° |
| 2026-04-07 11:55 | 52.14903 | 19.43785 | 22886 ft | 407 kts | 261° |
| 2026-04-07 11:55 | 52.13780 | 19.39530 | 23372 ft | 409 kts | 261° |
| 2026-04-07 11:55 | 52.12663 | 19.35306 | 23817 ft | 412 kts | 260° |
| 2026-04-07 11:55 | 52.11524 | 19.31008 | 24197 ft | 414 kts | 260° |
| 2026-04-07 11:56 | 52.10377 | 19.26687 | 24555 ft | 417 kts | 260° |
| 2026-04-07 11:56 | 52.09216 | 19.22326 | 24924 ft | 419 kts | 259° |
| 2026-04-07 11:56 | 52.08049 | 19.17944 | 25277 ft | 422 kts | 259° |
| 2026-04-07 11:56 | 52.06891 | 19.13611 | 25629 ft | 424 kts | 259° |
| 2026-04-07 11:57 | 52.05708 | 19.09190 | 25964 ft | 427 kts | 259° |
| 2026-04-07 11:57 | 52.04520 | 19.04758 | 26301 ft | 429 kts | 259° |
| 2026-04-07 11:57 | 52.03318 | 19.00281 | 26633 ft | 432 kts | 259° |
| 2026-04-07 11:57 | 52.02112 | 18.95802 | 26957 ft | 434 kts | 259° |
| 2026-04-07 11:58 | 52.00895 | 18.91286 | 27268 ft | 437 kts | 258° |
| 2026-04-07 11:58 | 51.99674 | 18.86766 | 27579 ft | 439 kts | 258° |
| 2026-04-07 11:58 | 51.98457 | 18.82273 | 27876 ft | 442 kts | 258° |
| 2026-04-07 11:58 | 51.97215 | 18.77693 | 28165 ft | 444 kts | 258° |
| 2026-04-07 11:59 | 51.95964 | 18.73089 | 28458 ft | 446 kts | 258° |
| 2026-04-07 11:59 | 51.94709 | 18.68481 | 28743 ft | 448 kts | 258° |
| 2026-04-07 11:59 | 51.93442 | 18.63844 | 29092 ft | 449 kts | 258° |
| 2026-04-07 11:59 | 51.92188 | 18.59268 | 29531 ft | 447 kts | 258° |
| 2026-04-07 12:00 | 51.90924 | 18.54664 | 29978 ft | 446 kts | 258° |
| 2026-04-07 12:00 | 51.89661 | 18.50074 | 30350 ft | 446 kts | 258° |
| 2026-04-07 12:00 | 51.88410 | 18.45526 | 30655 ft | 446 kts | 257° |
| 2026-04-07 12:00 | 51.87150 | 18.40950 | 30961 ft | 445 kts | 257° |
| 2026-04-07 12:01 | 51.85884 | 18.36366 | 31302 ft | 444 kts | 257° |
| 2026-04-07 12:01 | 51.84623 | 18.31807 | 31637 ft | 443 kts | 257° |
| 2026-04-07 12:01 | 51.83361 | 18.27254 | 31955 ft | 443 kts | 257° |
| 2026-04-07 12:01 | 51.82098 | 18.22708 | 32294 ft | 442 kts | 257° |
| 2026-04-07 12:02 | 51.80837 | 18.18176 | 32608 ft | 441 kts | 257° |
| 2026-04-07 12:02 | 51.79593 | 18.13715 | 32916 ft | 441 kts | 257° |
| 2026-04-07 12:02 | 51.78333 | 18.09201 | 33237 ft | 440 kts | 257° |
| 2026-04-07 12:02 | 51.77072 | 18.04698 | 33557 ft | 439 kts | 257° |
| 2026-04-07 12:03 | 51.75815 | 18.00212 | 33871 ft | 438 kts | 256° |
| 2026-04-07 12:03 | 51.74555 | 17.95726 | 34167 ft | 438 kts | 256° |
| 2026-04-07 12:03 | 51.73297 | 17.91259 | 34423 ft | 437 kts | 256° |
| 2026-04-07 12:03 | 51.72038 | 17.86790 | 34637 ft | 437 kts | 256° |
| 2026-04-07 12:04 | 51.70774 | 17.82314 | 34843 ft | 438 kts | 256° |
| 2026-04-07 12:04 | 51.69526 | 17.77902 | 35065 ft | 438 kts | 256° |
| 2026-04-07 12:04 | 51.68261 | 17.73442 | 35284 ft | 437 kts | 256° |
| 2026-04-07 12:04 | 51.66995 | 17.68987 | 35499 ft | 437 kts | 256° |
| 2026-04-07 12:05 | 51.65727 | 17.64531 | 35694 ft | 438 kts | 256° |
| 2026-04-07 12:05 | 51.64452 | 17.60060 | 35916 ft | 438 kts | 256° |
| 2026-04-07 12:05 | 51.63178 | 17.55602 | 36115 ft | 437 kts | 256° |
| 2026-04-07 12:05 | 51.61902 | 17.51148 | 36324 ft | 437 kts | 255° |
| 2026-04-07 12:06 | 51.60644 | 17.46762 | 36528 ft | 437 kts | 255° |
| 2026-04-07 12:06 | 51.59364 | 17.42309 | 36716 ft | 437 kts | 255° |
| 2026-04-07 12:06 | 51.58084 | 17.37860 | 36905 ft | 437 kts | 255° |
| 2026-04-07 12:06 | 51.56804 | 17.33423 | 37087 ft | 437 kts | 255° |
| 2026-04-07 12:07 | 51.55523 | 17.28990 | 37276 ft | 437 kts | 255° |
| 2026-04-07 12:07 | 51.54238 | 17.24554 | 37448 ft | 437 kts | 255° |
| 2026-04-07 12:07 | 51.52965 | 17.20164 | 37622 ft | 437 kts | 255° |
| 2026-04-07 12:07 | 51.51681 | 17.15744 | 37797 ft | 437 kts | 255° |
| 2026-04-07 12:08 | 51.50387 | 17.11301 | 37971 ft | 437 kts | 255° |
| 2026-04-07 12:08 | 51.49097 | 17.06877 | 38126 ft | 437 kts | 255° |
| 2026-04-07 12:08 | 51.47804 | 17.02454 | 38240 ft | 438 kts | 254° |
| 2026-04-07 12:08 | 51.46506 | 16.98016 | 38232 ft | 440 kts | 254° |
| 2026-04-07 12:09 | 51.43912 | 16.89180 | 38236 ft | 439 kts | 254° |
| 2026-04-07 12:09 | 51.41326 | 16.80411 | 38241 ft | 438 kts | 254° |
| 2026-04-07 12:10 | 51.38701 | 16.71539 | 38249 ft | 437 kts | 254° |
| 2026-04-07 12:10 | 51.36102 | 16.62781 | 38248 ft | 436 kts | 253° |
| 2026-04-07 12:11 | 51.33490 | 16.54011 | 38251 ft | 436 kts | 253° |
| 2026-04-07 12:11 | 51.30865 | 16.45232 | 38259 ft | 437 kts | 253° |
| 2026-04-07 12:12 | 51.28294 | 16.36662 | 38257 ft | 438 kts | 253° |
| 2026-04-07 12:12 | 51.25659 | 16.27911 | 38269 ft | 439 kts | 253° |
| 2026-04-07 12:13 | 51.22993 | 16.19090 | 38264 ft | 441 kts | 253° |
| 2026-04-07 12:13 | 51.20330 | 16.10310 | 38264 ft | 442 kts | 252° |
| 2026-04-07 12:14 | 51.17638 | 16.01469 | 38263 ft | 444 kts | 252° |
| 2026-04-07 12:14 | 51.14931 | 15.92610 | 38268 ft | 444 kts | 252° |
| 2026-04-07 12:15 | 51.12231 | 15.83808 | 38272 ft | 445 kts | 252° |
| 2026-04-07 12:15 | 51.09502 | 15.74943 | 38267 ft | 445 kts | 252° |
| 2026-04-07 12:16 | 51.06770 | 15.66099 | 38278 ft | 445 kts | 252° |
| 2026-04-07 12:16 | 51.04030 | 15.57263 | 38279 ft | 445 kts | 251° |
| 2026-04-07 12:17 | 51.01304 | 15.48499 | 38271 ft | 445 kts | 251° |
| 2026-04-07 12:17 | 50.98557 | 15.39695 | 38277 ft | 444 kts | 251° |
| 2026-04-07 12:18 | 50.95767 | 15.30954 | 38273 ft | 447 kts | 246° |
| 2026-04-07 12:18 | 50.91841 | 15.23125 | 38301 ft | 459 kts | 233° |
| 2026-04-07 12:19 | 50.87404 | 15.15828 | 38285 ft | 460 kts | 233° |
| 2026-04-07 12:19 | 50.82980 | 15.08507 | 38288 ft | 460 kts | 233° |
| 2026-04-07 12:20 | 50.78613 | 15.01187 | 38279 ft | 459 kts | 234° |
| 2026-04-07 12:20 | 50.74229 | 14.93832 | 38277 ft | 459 kts | 233° |
| 2026-04-07 12:21 | 50.69835 | 14.86488 | 38275 ft | 459 kts | 233° |
| 2026-04-07 12:21 | 50.65806 | 14.78802 | 38283 ft | 448 kts | 246° |
| 2026-04-07 12:22 | 50.63233 | 14.70124 | 38294 ft | 438 kts | 255° |
| 2026-04-07 12:22 | 50.60926 | 14.61235 | 38292 ft | 438 kts | 255° |
| 2026-04-07 12:23 | 50.58983 | 14.53836 | 38290 ft | 440 kts | 254° |
| 2026-04-07 12:23 | 50.56612 | 14.44942 | 38290 ft | 441 kts | 254° |
| 2026-04-07 12:24 | 50.54218 | 14.36049 | 38297 ft | 441 kts | 254° |
| 2026-04-07 12:24 | 50.51828 | 14.27215 | 38288 ft | 442 kts | 253° |
| 2026-04-07 12:25 | 50.49414 | 14.18326 | 38298 ft | 443 kts | 253° |
| 2026-04-07 12:25 | 50.46987 | 14.09419 | 38290 ft | 443 kts | 253° |
| 2026-04-07 12:26 | 50.44567 | 14.00571 | 38301 ft | 443 kts | 253° |
| 2026-04-07 12:26 | 50.42129 | 13.91691 | 38291 ft | 443 kts | 253° |
| 2026-04-07 12:27 | 50.39678 | 13.82799 | 38295 ft | 442 kts | 253° |
| 2026-04-07 12:27 | 50.37245 | 13.74004 | 38293 ft | 442 kts | 253° |
| 2026-04-07 12:28 | 50.34794 | 13.65178 | 38292 ft | 441 kts | 252° |
| 2026-04-07 12:29 | 50.31113 | 13.51981 | 38296 ft | 440 kts | 252° |
| 2026-04-07 12:29 | 50.28659 | 13.43225 | 38301 ft | 439 kts | 252° |
| 2026-04-07 12:30 | 50.26200 | 13.34483 | 38296 ft | 439 kts | 252° |
| 2026-04-07 12:30 | 50.23734 | 13.25747 | 38296 ft | 439 kts | 252° |
| 2026-04-07 12:31 | 50.21273 | 13.17064 | 38296 ft | 439 kts | 252° |
| 2026-04-07 12:31 | 50.18792 | 13.08342 | 38294 ft | 438 kts | 252° |
| 2026-04-07 12:32 | 50.16322 | 12.99687 | 38293 ft | 438 kts | 251° |
| 2026-04-07 12:32 | 50.13831 | 12.90992 | 38291 ft | 439 kts | 251° |
| 2026-04-07 12:33 | 50.11332 | 12.82302 | 38297 ft | 439 kts | 251° |
| 2026-04-07 12:33 | 50.08839 | 12.73663 | 38289 ft | 440 kts | 251° |
| 2026-04-07 12:34 | 50.06323 | 12.64978 | 38295 ft | 440 kts | 251° |
| 2026-04-07 12:34 | 50.03796 | 12.56282 | 38300 ft | 441 kts | 251° |
| 2026-04-07 12:35 | 50.01257 | 12.47581 | 38307 ft | 441 kts | 251° |
| 2026-04-07 12:35 | 49.98725 | 12.38933 | 38304 ft | 441 kts | 251° |
| 2026-04-07 12:36 | 49.96167 | 12.30228 | 38307 ft | 441 kts | 250° |
| 2026-04-07 12:36 | 49.93620 | 12.21593 | 38296 ft | 441 kts | 250° |
| 2026-04-07 12:37 | 49.91055 | 12.12926 | 38290 ft | 441 kts | 250° |
| 2026-04-07 12:37 | 49.88504 | 12.04340 | 38295 ft | 440 kts | 250° |
| 2026-04-07 12:38 | 49.85927 | 11.95696 | 38279 ft | 439 kts | 250° |
| 2026-04-07 12:38 | 49.83374 | 11.87161 | 38292 ft | 439 kts | 250° |
| 2026-04-07 12:39 | 49.80796 | 11.78569 | 38285 ft | 439 kts | 250° |
| 2026-04-07 12:39 | 49.78214 | 11.69998 | 38289 ft | 439 kts | 250° |
| 2026-04-07 12:40 | 49.75641 | 11.61488 | 38305 ft | 439 kts | 250° |
| 2026-04-07 12:40 | 49.73063 | 11.52990 | 38298 ft | 439 kts | 249° |
| 2026-04-07 12:41 | 49.70457 | 11.44427 | 38298 ft | 439 kts | 249° |
| 2026-04-07 12:41 | 49.67846 | 11.35880 | 38305 ft | 439 kts | 249° |
| 2026-04-07 12:42 | 49.65247 | 11.27400 | 38307 ft | 440 kts | 249° |
| 2026-04-07 12:42 | 49.62624 | 11.18875 | 38312 ft | 440 kts | 249° |
| 2026-04-07 12:43 | 49.59989 | 11.10335 | 38316 ft | 440 kts | 249° |
| 2026-04-07 12:43 | 49.57367 | 11.01869 | 38322 ft | 440 kts | 249° |
| 2026-04-07 12:44 | 49.54721 | 10.93349 | 38321 ft | 440 kts | 248° |
| 2026-04-07 12:44 | 49.52071 | 10.84856 | 38313 ft | 440 kts | 247° |
| 2026-04-07 12:45 | 49.48569 | 10.77136 | 38315 ft | 449 kts | 229° |
| 2026-04-07 12:45 | 49.44143 | 10.70352 | 38317 ft | 449 kts | 229° |
| 2026-04-07 12:46 | 49.39779 | 10.63472 | 38319 ft | 448 kts | 230° |
| 2026-04-07 12:46 | 49.35503 | 10.56540 | 38324 ft | 449 kts | 230° |
| 2026-04-07 12:47 | 49.31112 | 10.49688 | 38320 ft | 450 kts | 228° |
| 2026-04-07 12:47 | 49.26655 | 10.42954 | 38322 ft | 449 kts | 228° |
| 2026-04-07 12:48 | 49.22247 | 10.36227 | 38326 ft | 449 kts | 229° |
| 2026-04-07 12:48 | 49.17872 | 10.29373 | 38318 ft | 449 kts | 229° |
| 2026-04-07 12:49 | 49.13573 | 10.22539 | 38303 ft | 447 kts | 233° |
| 2026-04-07 12:49 | 49.09657 | 10.15164 | 38291 ft | 446 kts | 234° |
| 2026-04-07 12:50 | 49.05805 | 10.07749 | 38294 ft | 446 kts | 234° |
| 2026-04-07 12:50 | 49.01940 | 10.00404 | 38291 ft | 446 kts | 234° |
| 2026-04-07 12:51 | 48.98028 | 9.93034 | 38292 ft | 446 kts | 233° |
| 2026-04-07 12:51 | 48.94115 | 9.85689 | 38291 ft | 446 kts | 233° |
| 2026-04-07 12:52 | 48.90197 | 9.78348 | 38284 ft | 446 kts | 233° |
| 2026-04-07 12:52 | 48.86301 | 9.71073 | 38275 ft | 446 kts | 233° |
| 2026-04-07 12:53 | 48.82376 | 9.63766 | 38269 ft | 446 kts | 233° |
| 2026-04-07 12:53 | 48.78450 | 9.56470 | 38265 ft | 446 kts | 233° |
| 2026-04-07 12:54 | 48.74543 | 9.49227 | 38258 ft | 446 kts | 233° |
| 2026-04-07 12:54 | 48.70604 | 9.41967 | 38260 ft | 446 kts | 232° |
| 2026-04-07 12:55 | 48.66645 | 9.34738 | 38267 ft | 445 kts | 232° |
| 2026-04-07 12:55 | 48.62708 | 9.27557 | 38258 ft | 445 kts | 232° |
| 2026-04-07 12:56 | 48.58941 | 9.20120 | 38265 ft | 444 kts | 236° |
| 2026-04-07 12:56 | 48.55397 | 9.12472 | 38257 ft | 444 kts | 237° |
| 2026-04-07 12:57 | 48.51847 | 9.04830 | 38258 ft | 444 kts | 236° |
| 2026-04-07 12:57 | 48.48288 | 8.97276 | 38253 ft | 444 kts | 236° |
| 2026-04-07 12:58 | 48.44689 | 8.89698 | 38256 ft | 445 kts | 236° |
| 2026-04-07 12:58 | 48.41076 | 8.82118 | 38239 ft | 445 kts | 236° |
| 2026-04-07 12:59 | 48.37459 | 8.74549 | 38246 ft | 445 kts | 236° |
| 2026-04-07 12:59 | 48.33841 | 8.66995 | 38240 ft | 445 kts | 236° |
| 2026-04-07 13:00 | 48.30240 | 8.59496 | 38243 ft | 445 kts | 235° |
| 2026-04-07 13:00 | 48.26601 | 8.51941 | 38238 ft | 445 kts | 235° |
| 2026-04-07 13:01 | 48.22988 | 8.44457 | 38238 ft | 445 kts | 235° |
| 2026-04-07 13:01 | 48.19342 | 8.36931 | 38241 ft | 445 kts | 234° |
| 2026-04-07 13:02 | 48.14921 | 8.30432 | 38248 ft | 447 kts | 216° |
| 2026-04-07 13:02 | 48.09507 | 8.25819 | 38245 ft | 449 kts | 208° |
| 2026-04-07 13:03 | 48.04008 | 8.21490 | 38252 ft | 449 kts | 208° |
| 2026-04-07 13:03 | 47.98543 | 8.16964 | 38248 ft | 448 kts | 212° |
| 2026-04-07 13:04 | 47.93253 | 8.12023 | 38246 ft | 449 kts | 213° |
| 2026-04-07 13:04 | 47.87976 | 8.07019 | 38249 ft | 449 kts | 213° |
| 2026-04-07 13:05 | 47.82679 | 8.02069 | 38248 ft | 449 kts | 212° |
| 2026-04-07 13:05 | 47.77405 | 7.97196 | 38251 ft | 449 kts | 212° |
| 2026-04-07 13:06 | 47.72084 | 7.92303 | 38239 ft | 449 kts | 212° |
| 2026-04-07 13:06 | 47.66753 | 7.87415 | 38241 ft | 449 kts | 212° |
| 2026-04-07 13:07 | 47.61454 | 7.82567 | 38235 ft | 449 kts | 212° |
| 2026-04-07 13:07 | 47.56133 | 7.77709 | 38240 ft | 448 kts | 212° |
| 2026-04-07 13:08 | 47.50843 | 7.72890 | 38236 ft | 448 kts | 212° |
| 2026-04-07 13:08 | 47.45525 | 7.68058 | 38241 ft | 447 kts | 211° |
| 2026-04-07 13:09 | 47.40215 | 7.63245 | 38233 ft | 447 kts | 211° |
| 2026-04-07 13:09 | 47.34941 | 7.58476 | 38234 ft | 446 kts | 211° |
| 2026-04-07 13:10 | 47.29643 | 7.53696 | 38237 ft | 446 kts | 211° |
| 2026-04-07 13:10 | 47.24335 | 7.48919 | 38237 ft | 446 kts | 211° |
| 2026-04-07 13:11 | 47.19037 | 7.44162 | 38238 ft | 446 kts | 211° |
| 2026-04-07 13:11 | 47.14627 | 7.40211 | 38245 ft | 446 kts | 211° |
| 2026-04-07 13:12 | 47.09314 | 7.35461 | 38238 ft | 446 kts | 211° |
| 2026-04-07 13:12 | 47.04033 | 7.30751 | 38236 ft | 447 kts | 210° |
| 2026-04-07 13:13 | 46.98716 | 7.26020 | 38235 ft | 447 kts | 211° |
| 2026-04-07 13:13 | 46.93389 | 7.21292 | 38237 ft | 447 kts | 210° |
| 2026-04-07 13:14 | 46.88106 | 7.16613 | 38238 ft | 447 kts | 210° |
| 2026-04-07 13:14 | 46.82771 | 7.11899 | 38247 ft | 447 kts | 210° |
| 2026-04-07 13:15 | 46.77425 | 7.07187 | 38241 ft | 447 kts | 210° |
| 2026-04-07 13:15 | 46.72095 | 7.02501 | 38233 ft | 447 kts | 210° |
| 2026-04-07 13:16 | 46.66785 | 6.97841 | 38242 ft | 447 kts | 210° |
| 2026-04-07 13:16 | 46.61449 | 6.93171 | 38244 ft | 447 kts | 210° |
| 2026-04-07 13:17 | 46.56142 | 6.88536 | 38242 ft | 447 kts | 210° |
| 2026-04-07 13:17 | 46.50767 | 6.83854 | 38245 ft | 447 kts | 210° |
| 2026-04-07 13:18 | 46.45450 | 6.79232 | 38245 ft | 447 kts | 210° |
| 2026-04-07 13:18 | 46.40108 | 6.74599 | 38245 ft | 447 kts | 210° |
| 2026-04-07 13:19 | 46.34809 | 6.70014 | 38248 ft | 446 kts | 210° |
| 2026-04-07 13:19 | 46.29461 | 6.65397 | 38254 ft | 447 kts | 210° |
| 2026-04-07 13:20 | 46.24122 | 6.60799 | 38258 ft | 446 kts | 209° |
| 2026-04-07 13:20 | 46.18776 | 6.56206 | 38253 ft | 446 kts | 209° |
| 2026-04-07 13:21 | 46.13463 | 6.51650 | 38246 ft | 447 kts | 209° |
| 2026-04-07 13:21 | 46.08085 | 6.47050 | 38248 ft | 447 kts | 209° |
| 2026-04-07 13:22 | 46.02758 | 6.42503 | 38249 ft | 447 kts | 209° |
| 2026-04-07 13:22 | 45.97404 | 6.37944 | 38238 ft | 447 kts | 209° |
| 2026-04-07 13:23 | 45.92027 | 6.33376 | 38230 ft | 448 kts | 209° |
| 2026-04-07 13:23 | 45.86660 | 6.28826 | 38241 ft | 447 kts | 209° |
| 2026-04-07 13:24 | 45.81319 | 6.24309 | 38250 ft | 448 kts | 209° |
| 2026-04-07 13:24 | 45.75947 | 6.19776 | 38246 ft | 448 kts | 209° |
| 2026-04-07 13:25 | 45.70568 | 6.15247 | 38215 ft | 448 kts | 209° |
| 2026-04-07 13:25 | 45.65217 | 6.10751 | 38227 ft | 448 kts | 208° |
| 2026-04-07 13:26 | 45.59814 | 6.06221 | 38226 ft | 449 kts | 208° |
| 2026-04-07 13:26 | 45.54414 | 6.01703 | 38213 ft | 450 kts | 208° |
| 2026-04-07 13:27 | 45.48995 | 5.97218 | 38218 ft | 450 kts | 205° |
| 2026-04-07 13:27 | 45.43132 | 5.94288 | 38231 ft | 446 kts | 192° |
| 2026-04-07 13:28 | 45.37124 | 5.92240 | 38220 ft | 447 kts | 192° |
| 2026-04-07 13:28 | 45.31050 | 5.90165 | 38229 ft | 448 kts | 192° |
| 2026-04-07 13:29 | 45.24987 | 5.88044 | 38228 ft | 448 kts | 192° |
| 2026-04-07 13:29 | 45.18912 | 5.85900 | 38225 ft | 449 kts | 192° |
| 2026-04-07 13:30 | 45.12884 | 5.83772 | 38235 ft | 448 kts | 192° |
| 2026-04-07 13:30 | 45.06819 | 5.81637 | 38229 ft | 448 kts | 192° |
| 2026-04-07 13:31 | 45.00808 | 5.79527 | 38233 ft | 447 kts | 192° |
| 2026-04-07 13:31 | 44.94756 | 5.77408 | 38240 ft | 447 kts | 192° |
| 2026-04-07 13:32 | 44.88702 | 5.75292 | 38242 ft | 448 kts | 192° |
| 2026-04-07 13:32 | 44.82643 | 5.73180 | 38234 ft | 448 kts | 192° |
| 2026-04-07 13:33 | 44.76627 | 5.71087 | 38234 ft | 448 kts | 192° |
| 2026-04-07 13:33 | 44.67546 | 5.67935 | 38247 ft | 447 kts | 192° |
| 2026-04-07 13:34 | 44.61480 | 5.65836 | 38243 ft | 448 kts | 192° |
| 2026-04-07 13:34 | 44.55452 | 5.63754 | 38244 ft | 449 kts | 192° |
| 2026-04-07 13:35 | 44.49365 | 5.61657 | 38242 ft | 449 kts | 192° |
| 2026-04-07 13:35 | 44.43290 | 5.59568 | 38235 ft | 449 kts | 192° |
| 2026-04-07 13:36 | 44.37248 | 5.57495 | 38251 ft | 449 kts | 192° |
| 2026-04-07 13:36 | 44.31177 | 5.55416 | 38244 ft | 450 kts | 192° |
| 2026-04-07 13:37 | 44.25086 | 5.53334 | 38252 ft | 450 kts | 192° |
| 2026-04-07 13:37 | 44.18989 | 5.51254 | 38246 ft | 450 kts | 192° |
| 2026-04-07 13:38 | 44.13090 | 5.48460 | 38246 ft | 453 kts | 206° |
| 2026-04-07 13:38 | 44.07505 | 5.44356 | 38258 ft | 453 kts | 206° |
| 2026-04-07 13:39 | 44.01938 | 5.40210 | 38254 ft | 454 kts | 206° |
| 2026-04-07 13:39 | 43.96350 | 5.36108 | 38247 ft | 454 kts | 206° |
| 2026-04-07 13:40 | 43.90784 | 5.32068 | 38257 ft | 454 kts | 206° |
| 2026-04-07 13:40 | 43.85169 | 5.28014 | 38253 ft | 454 kts | 206° |
| 2026-04-07 13:41 | 43.79540 | 5.23957 | 38257 ft | 455 kts | 206° |
| 2026-04-07 13:41 | 43.73958 | 5.19942 | 38268 ft | 455 kts | 206° |
| 2026-04-07 13:42 | 43.68327 | 5.15899 | 38262 ft | 455 kts | 206° |
| 2026-04-07 13:42 | 43.62687 | 5.11858 | 38271 ft | 455 kts | 206° |
| 2026-04-07 13:43 | 43.57086 | 5.07855 | 38266 ft | 456 kts | 206° |
| 2026-04-07 13:43 | 43.51442 | 5.03829 | 38268 ft | 456 kts | 206° |
| 2026-04-07 13:44 | 43.45789 | 4.99804 | 38268 ft | 456 kts | 206° |
| 2026-04-07 13:44 | 43.40173 | 4.95814 | 38263 ft | 457 kts | 206° |
| 2026-04-07 13:45 | 43.34521 | 4.91808 | 38260 ft | 457 kts | 206° |
| 2026-04-07 13:45 | 43.28871 | 4.87812 | 38260 ft | 456 kts | 206° |
| 2026-04-07 13:46 | 43.23212 | 4.83817 | 38251 ft | 456 kts | 206° |
| 2026-04-07 13:46 | 43.17551 | 4.79829 | 38248 ft | 456 kts | 206° |
| 2026-04-07 13:47 | 43.11928 | 4.75876 | 38245 ft | 456 kts | 206° |
| 2026-04-07 13:47 | 43.06265 | 4.71904 | 38241 ft | 456 kts | 206° |
| 2026-04-07 13:48 | 43.00644 | 4.67969 | 38238 ft | 456 kts | 206° |
| 2026-04-07 13:48 | 42.94975 | 4.64009 | 38240 ft | 457 kts | 206° |
| 2026-04-07 13:49 | 42.89304 | 4.60056 | 38237 ft | 457 kts | 207° |
| 2026-04-07 13:49 | 42.83663 | 4.56131 | 38232 ft | 457 kts | 207° |
| 2026-04-07 13:50 | 42.77974 | 4.52182 | 38233 ft | 458 kts | 207° |
| 2026-04-07 13:50 | 42.72290 | 4.48244 | 38230 ft | 458 kts | 207° |
| 2026-04-07 13:51 | 42.66626 | 4.44328 | 38229 ft | 459 kts | 207° |
| 2026-04-07 13:51 | 42.60928 | 4.40397 | 38227 ft | 459 kts | 207° |
| 2026-04-07 13:52 | 42.55248 | 4.36486 | 38227 ft | 460 kts | 207° |
| 2026-04-07 13:52 | 42.49529 | 4.32556 | 38226 ft | 460 kts | 207° |
| 2026-04-07 13:53 | 42.43808 | 4.28634 | 38226 ft | 460 kts | 207° |
| 2026-04-07 13:53 | 42.38118 | 4.24740 | 38218 ft | 460 kts | 207° |
| 2026-04-07 13:54 | 42.32403 | 4.20838 | 38224 ft | 460 kts | 207° |
| 2026-04-07 13:54 | 42.26679 | 4.16937 | 38217 ft | 459 kts | 207° |
| 2026-04-07 13:55 | 42.20996 | 4.13072 | 38220 ft | 458 kts | 207° |
| 2026-04-07 13:55 | 42.15307 | 4.09211 | 38222 ft | 457 kts | 207° |
| 2026-04-07 13:56 | 42.09670 | 4.05393 | 38215 ft | 455 kts | 207° |
| 2026-04-07 13:56 | 42.04012 | 4.01568 | 38212 ft | 453 kts | 208° |
| 2026-04-07 13:57 | 41.98400 | 3.97782 | 38212 ft | 451 kts | 208° |
| 2026-04-07 13:57 | 41.92780 | 3.93998 | 38209 ft | 450 kts | 207° |
| 2026-04-07 13:58 | 41.88132 | 3.90874 | 38213 ft | 448 kts | 208° |
| 2026-04-07 13:58 | 41.82548 | 3.87128 | 38210 ft | 447 kts | 208° |
| 2026-04-07 13:59 | 41.77016 | 3.83424 | 38206 ft | 446 kts | 208° |
| 2026-04-07 13:59 | 41.71457 | 3.79709 | 38210 ft | 445 kts | 208° |
| 2026-04-07 14:00 | 41.65956 | 3.76040 | 38208 ft | 444 kts | 208° |
| 2026-04-07 14:00 | 41.60416 | 3.72352 | 38208 ft | 444 kts | 208° |
| 2026-04-07 14:01 | 41.54874 | 3.68670 | 38207 ft | 444 kts | 208° |
| 2026-04-07 14:01 | 41.49383 | 3.65028 | 38210 ft | 445 kts | 208° |
| 2026-04-07 14:02 | 41.43814 | 3.61342 | 38209 ft | 447 kts | 207° |
| 2026-04-07 14:02 | 41.38234 | 3.57656 | 38202 ft | 448 kts | 207° |
| 2026-04-07 14:03 | 41.32636 | 3.53965 | 38202 ft | 449 kts | 207° |
| 2026-04-07 14:03 | 41.27027 | 3.50275 | 38201 ft | 449 kts | 207° |
| 2026-04-07 14:04 | 41.21441 | 3.46606 | 38200 ft | 448 kts | 207° |
| 2026-04-07 14:04 | 41.15883 | 3.42963 | 38203 ft | 446 kts | 207° |
| 2026-04-07 14:05 | 41.10318 | 3.39321 | 38199 ft | 445 kts | 207° |
| 2026-04-07 14:05 | 41.04770 | 3.35698 | 38202 ft | 443 kts | 207° |
| 2026-04-07 14:06 | 40.99274 | 3.32116 | 38204 ft | 442 kts | 207° |
| 2026-04-07 14:06 | 40.93757 | 3.28527 | 38201 ft | 441 kts | 207° |
| 2026-04-07 14:07 | 40.88248 | 3.24949 | 38201 ft | 440 kts | 207° |
| 2026-04-07 14:07 | 40.82731 | 3.21373 | 38188 ft | 440 kts | 207° |
| 2026-04-07 14:08 | 40.77259 | 3.17833 | 38188 ft | 440 kts | 207° |
| 2026-04-07 14:08 | 40.71737 | 3.14267 | 38187 ft | 441 kts | 207° |
| 2026-04-07 14:09 | 40.66235 | 3.10721 | 38183 ft | 441 kts | 207° |
| 2026-04-07 14:09 | 40.60744 | 3.07187 | 38182 ft | 442 kts | 207° |
| 2026-04-07 14:10 | 40.55200 | 3.03627 | 38180 ft | 442 kts | 207° |
| 2026-04-07 14:10 | 40.49693 | 3.00097 | 38184 ft | 443 kts | 207° |
| 2026-04-07 14:11 | 40.44161 | 2.96558 | 38179 ft | 443 kts | 207° |
| 2026-04-07 14:11 | 40.38610 | 2.93012 | 38174 ft | 443 kts | 207° |
| 2026-04-07 14:12 | 40.33074 | 2.89483 | 38177 ft | 443 kts | 207° |
| 2026-04-07 14:12 | 40.27522 | 2.85950 | 38171 ft | 442 kts | 207° |
| 2026-04-07 14:13 | 40.21976 | 2.82428 | 38169 ft | 442 kts | 207° |
| 2026-04-07 14:13 | 40.16470 | 2.78937 | 38166 ft | 441 kts | 207° |
| 2026-04-07 14:14 | 40.10942 | 2.75438 | 38166 ft | 440 kts | 207° |
| 2026-04-07 14:14 | 40.05413 | 2.71946 | 38172 ft | 440 kts | 207° |
| 2026-04-07 14:15 | 39.99933 | 2.68490 | 38160 ft | 439 kts | 207° |
| 2026-04-07 14:15 | 39.94425 | 2.65023 | 38159 ft | 438 kts | 207° |
| 2026-04-07 14:16 | 39.88955 | 2.61586 | 38157 ft | 438 kts | 207° |
| 2026-04-07 14:16 | 39.83464 | 2.58141 | 38154 ft | 437 kts | 207° |
| 2026-04-07 14:17 | 39.77985 | 2.54710 | 38156 ft | 436 kts | 207° |
| 2026-04-07 14:17 | 39.72533 | 2.51301 | 38154 ft | 436 kts | 207° |
| 2026-04-07 14:18 | 39.69851 | 2.49455 | 38134 ft | 433 kts | 218° |
| 2026-04-07 14:18 | 39.67696 | 2.46777 | 38170 ft | 428 kts | 235° |
| 2026-04-07 14:18 | 39.66213 | 2.43509 | 38156 ft | 426 kts | 248° |
| 2026-04-07 14:18 | 39.65378 | 2.39784 | 38147 ft | 425 kts | 263° |
| 2026-04-07 14:19 | 39.64972 | 2.32182 | 38159 ft | 426 kts | 267° |
| 2026-04-07 14:19 | 39.64692 | 2.24483 | 38156 ft | 427 kts | 266° |
| 2026-04-07 14:20 | 39.64365 | 2.16780 | 38159 ft | 428 kts | 266° |
| 2026-04-07 14:20 | 39.64000 | 2.09064 | 38160 ft | 429 kts | 266° |
| 2026-04-07 14:21 | 39.63619 | 2.01359 | 38163 ft | 430 kts | 266° |
| 2026-04-07 14:21 | 39.63229 | 1.93585 | 38165 ft | 431 kts | 265° |
| 2026-04-07 14:22 | 39.62834 | 1.85811 | 38166 ft | 431 kts | 265° |
| 2026-04-07 14:22 | 39.62434 | 1.78019 | 37765 ft | 438 kts | 265° |
| 2026-04-07 14:23 | 39.62233 | 1.74136 | 37271 ft | 436 kts | 265° |
| 2026-04-07 14:23 | 39.62030 | 1.70227 | 36699 ft | 433 kts | 265° |
| 2026-04-07 14:23 | 39.61825 | 1.66323 | 36091 ft | 432 kts | 265° |
| 2026-04-07 14:23 | 39.61619 | 1.62425 | 35442 ft | 433 kts | 265° |
| 2026-04-07 14:24 | 39.61411 | 1.58522 | 34784 ft | 434 kts | 265° |
| 2026-04-07 14:24 | 39.61202 | 1.54610 | 34113 ft | 435 kts | 264° |
| 2026-04-07 14:24 | 39.60994 | 1.50740 | 33340 ft | 436 kts | 264° |
| 2026-04-07 14:24 | 39.60781 | 1.46811 | 32779 ft | 433 kts | 264° |
| 2026-04-07 14:25 | 39.60571 | 1.42929 | 32269 ft | 429 kts | 264° |
| 2026-04-07 14:25 | 39.60360 | 1.39081 | 31774 ft | 425 kts | 264° |
| 2026-04-07 14:25 | 39.60150 | 1.35264 | 31285 ft | 422 kts | 264° |
| 2026-04-07 14:25 | 39.59940 | 1.31470 | 30809 ft | 419 kts | 264° |
| 2026-04-07 14:26 | 39.59733 | 1.27725 | 30416 ft | 413 kts | 264° |
| 2026-04-07 14:26 | 39.59528 | 1.24041 | 30149 ft | 407 kts | 264° |
| 2026-04-07 14:26 | 39.59325 | 1.20446 | 29690 ft | 403 kts | 264° |
| 2026-04-07 14:26 | 39.59156 | 1.16837 | 29167 ft | 401 kts | 269° |
| 2026-04-07 14:27 | 39.59270 | 1.13264 | 28948 ft | 395 kts | 271° |
| 2026-04-07 14:27 | 39.59461 | 1.09656 | 28694 ft | 408 kts | 272° |
| 2026-04-07 14:27 | 39.59675 | 1.05932 | 28428 ft | 418 kts | 272° |
| 2026-04-07 14:27 | 39.59892 | 1.02134 | 28176 ft | 421 kts | 272° |
| 2026-04-07 14:28 | 39.60097 | 0.98395 | 27906 ft | 418 kts | 272° |
| 2026-04-07 14:28 | 39.60295 | 0.94650 | 27545 ft | 414 kts | 272° |
| 2026-04-07 14:28 | 39.60483 | 0.90939 | 27077 ft | 409 kts | 271° |
| 2026-04-07 14:28 | 39.60664 | 0.87265 | 26586 ft | 405 kts | 271° |
| 2026-04-07 14:29 | 39.60838 | 0.83634 | 26110 ft | 402 kts | 271° |
| 2026-04-07 14:29 | 39.61010 | 0.80018 | 25637 ft | 399 kts | 271° |
| 2026-04-07 14:29 | 39.61178 | 0.76434 | 25170 ft | 397 kts | 271° |
| 2026-04-07 14:29 | 39.61343 | 0.72913 | 24715 ft | 395 kts | 271° |
| 2026-04-07 14:30 | 39.61508 | 0.69361 | 24221 ft | 394 kts | 271° |
| 2026-04-07 14:30 | 39.61671 | 0.65810 | 23747 ft | 392 kts | 271° |
| 2026-04-07 14:30 | 39.61833 | 0.62285 | 23202 ft | 391 kts | 271° |
| 2026-04-07 14:30 | 39.61992 | 0.58783 | 22714 ft | 388 kts | 271° |
| 2026-04-07 14:31 | 39.62149 | 0.55332 | 22233 ft | 385 kts | 271° |
| 2026-04-07 14:31 | 39.62305 | 0.51875 | 21771 ft | 382 kts | 270° |
| 2026-04-07 14:31 | 39.62458 | 0.48445 | 21317 ft | 379 kts | 270° |
| 2026-04-07 14:31 | 39.62610 | 0.45034 | 20865 ft | 376 kts | 270° |
| 2026-04-07 14:32 | 39.62759 | 0.41651 | 20418 ft | 374 kts | 270° |
| 2026-04-07 14:32 | 39.62907 | 0.38285 | 19977 ft | 372 kts | 270° |
| 2026-04-07 14:32 | 39.63053 | 0.34936 | 19535 ft | 370 kts | 270° |
| 2026-04-07 14:32 | 39.63194 | 0.31657 | 19106 ft | 368 kts | 270° |
| 2026-04-07 14:33 | 39.63336 | 0.28345 | 18674 ft | 366 kts | 270° |
| 2026-04-07 14:33 | 39.63477 | 0.25039 | 18183 ft | 365 kts | 270° |
| 2026-04-07 14:33 | 39.63616 | 0.21752 | 17710 ft | 363 kts | 270° |
| 2026-04-07 14:33 | 39.63754 | 0.18488 | 17257 ft | 361 kts | 270° |
| 2026-04-07 14:34 | 39.63890 | 0.15249 | 16819 ft | 358 kts | 270° |
| 2026-04-07 14:34 | 39.64022 | 0.12060 | 16393 ft | 356 kts | 270° |
| 2026-04-07 14:34 | 39.64154 | 0.08869 | 16212 ft | 357 kts | 270° |
| 2026-04-07 14:34 | 39.64285 | 0.05667 | 16171 ft | 350 kts | 270° |
| 2026-04-07 14:35 | 39.64413 | 0.02569 | 16159 ft | 336 kts | 270° |
| 2026-04-07 14:35 | 39.64536 | -0.00402 | 16150 ft | 322 kts | 270° |
| 2026-04-07 14:35 | 39.64652 | -0.03236 | 16156 ft | 308 kts | 270° |
| 2026-04-07 14:35 | 39.64761 | -0.05937 | 15939 ft | 303 kts | 269° |
| 2026-04-07 14:36 | 39.64868 | -0.08708 | 15465 ft | 313 kts | 270° |
| 2026-04-07 14:36 | 39.64978 | -0.11656 | 15046 ft | 340 kts | 270° |
| 2026-04-07 14:36 | 39.65096 | -0.14769 | 14599 ft | 349 kts | 270° |
| 2026-04-07 14:36 | 39.65114 | -0.15243 | 14532 ft | 349 kts | 270° |
| 2026-04-07 14:37 | 39.65236 | -0.18385 | 14081 ft | 352 kts | 270° |
| 2026-04-07 14:37 | 39.65360 | -0.21551 | 13610 ft | 352 kts | 270° |
| 2026-04-07 14:37 | 39.65484 | -0.24735 | 13103 ft | 351 kts | 271° |
| 2026-04-07 14:37 | 39.65606 | -0.27890 | 12615 ft | 349 kts | 270° |
| 2026-04-07 14:38 | 39.65726 | -0.30998 | 12163 ft | 349 kts | 271° |
| 2026-04-07 14:38 | 39.65843 | -0.34141 | 11664 ft | 349 kts | 271° |
| 2026-04-07 14:38 | 39.65959 | -0.37295 | 11224 ft | 347 kts | 270° |
| 2026-04-07 14:38 | 39.66075 | -0.40417 | 10779 ft | 346 kts | 271° |
| 2026-04-07 14:39 | 39.66311 | -0.46649 | 9855 ft | 342 kts | 270° |
| 2026-04-07 14:39 | 39.66418 | -0.49621 | 9536 ft | 327 kts | 270° |
| 2026-04-07 14:39 | 39.66520 | -0.52533 | 9130 ft | 317 kts | 270° |
| 2026-04-07 14:40 | 39.66621 | -0.55354 | 8746 ft | 308 kts | 270° |
| 2026-04-07 14:40 | 39.66720 | -0.58098 | 8348 ft | 301 kts | 270° |
| 2026-04-07 14:40 | 39.66815 | -0.60807 | 7850 ft | 299 kts | 270° |
| 2026-04-07 14:40 | 39.66906 | -0.63471 | 7352 ft | 297 kts | 270° |
| 2026-04-07 14:41 | 39.67000 | -0.66153 | 6875 ft | 296 kts | 270° |
| 2026-04-07 14:41 | 39.67090 | -0.68809 | 6463 ft | 289 kts | 269° |
| 2026-04-07 14:41 | 39.67179 | -0.71379 | 6160 ft | 280 kts | 269° |
| 2026-04-07 14:41 | 39.67289 | -0.73882 | 5824 ft | 277 kts | 272° |
| 2026-04-07 14:42 | 39.67381 | -0.76325 | 5516 ft | 273 kts | 268° |
| 2026-04-07 14:42 | 39.67447 | -0.78773 | 5164 ft | 272 kts | 268° |
| 2026-04-07 14:42 | 39.66985 | -0.81074 | 4763 ft | 261 kts | 231° |
| 2026-04-07 14:42 | 39.65617 | -0.82450 | 4448 ft | 246 kts | 193° |
| 2026-04-07 14:43 | 39.63980 | -0.82401 | 4146 ft | 234 kts | 157° |
| 2026-04-07 14:43 | 39.62610 | -0.81373 | 3948 ft | 225 kts | 135° |
| 2026-04-07 14:43 | 39.61653 | -0.79821 | 3753 ft | 217 kts | 122° |
| 2026-04-07 14:43 | 39.60836 | -0.78185 | 3579 ft | 215 kts | 121° |
| 2026-04-07 14:44 | 39.60032 | -0.76564 | 3401 ft | 214 kts | 121° |
| 2026-04-07 14:44 | 39.59249 | -0.74951 | 3293 ft | 213 kts | 119° |
| 2026-04-07 14:44 | 39.58522 | -0.73288 | 3140 ft | 212 kts | 117° |
| 2026-04-07 14:44 | 39.58069 | -0.72157 | 3020 ft | 212 kts | 116° |
| 2026-04-07 14:45 | 39.57191 | -0.69876 | 2804 ft | 208 kts | 116° |
| 2026-04-07 14:45 | 39.56571 | -0.68248 | 2835 ft | 196 kts | 115° |
| 2026-04-07 14:45 | 39.55981 | -0.66685 | 2788 ft | 188 kts | 116° |
| 2026-04-07 14:45 | 39.55592 | -0.65704 | 2787 ft | 183 kts | 115° |
| 2026-04-07 14:46 | 39.55030 | -0.64212 | 2675 ft | 186 kts | 115° |
| 2026-04-07 14:46 | 39.54444 | -0.62663 | 2389 ft | 195 kts | 114° |
| 2026-04-07 14:46 | 39.53858 | -0.61114 | 2168 ft | 190 kts | 114° |
| 2026-04-07 14:46 | 39.53276 | -0.59592 | 1969 ft | 189 kts | 116° |
| 2026-04-07 14:47 | 39.52684 | -0.58015 | 1652 ft | 196 kts | 114° |
| 2026-04-07 14:47 | 39.52085 | -0.56442 | 1373 ft | 193 kts | 116° |
| 2026-04-07 14:47 | 39.51502 | -0.54940 | 1156 ft | 179 kts | 115° |
| 2026-04-07 14:47 | 39.50976 | -0.53542 | 899 ft | 166 kts | 115° |
| 2026-04-07 14:48 | 39.50493 | -0.52268 | 656 ft | 148 kts | 115° |
| 2026-04-07 14:48 | 39.50061 | -0.51133 | 470 ft | 139 kts | 115° |
| 2026-04-07 14:48 | 39.49635 | -0.50013 | 253 ft | 138 kts | 116° |
| 2026-04-07 14:48 | 39.49234 | -0.48960 | 210 ft | 117 kts | 115° |
| 2026-04-07 14:49 | 39.48984 | -0.48292 | 210 ft | 39 kts | 109° |
| 2026-04-07 14:49 | 39.49004 | -0.47978 | 211 ft | 23 kts | 78° |
| 2026-04-07 14:49 | 39.49040 | -0.47779 | 213 ft | 22 kts | 77° |
| 2026-04-07 14:49 | 39.49040 | -0.47587 | 214 ft | 22 kts | 116° |
| 2026-04-07 14:50 | 39.48974 | -0.47413 | 216 ft | 21 kts | 117° |
| 2026-04-07 14:50 | 39.48953 | -0.47254 | 212 ft | 14 kts | 48° |
| 2026-04-07 14:50 | 39.49001 | -0.47226 | 208 ft | 0 kts | 17° |